« 定点 富山空港 2014/2/20 thu | トップページ | 小牧基地オープンベース1 名古屋飛行場 2014/2/22 sat »

2014/02/23

定点 富山空港 2014/2/23 sun

なんか、朝夢で早朝出動があったみたいですが・・・ のんびり日曜です。押っ取り刀で、トワイライト狙いで午後から。

RJNT 230400Z 27006KT 220V340 9999 SCT050 06/M06 Q1029

20140223_rjnt_00ja8196

20140223_rjnt_01ja8196

ADO120 RJCC-RJNT JA8916 B737-54K

20140223_rjnt_02ja8196

20140223_rjnt_03ja8196

ADO121 RJNT-RJCC JA8196 B737-54K

20140223_rjnt_04ja8360

20140223_rjnt_05ja8360

ANA885 RJTT-RJNT JA8360 B767-381

管理事務所の車から見てみたい!

20140223_rjnt_06ja9316

JA9316 AS350B AAK

RJNT 230600Z 24007KT 9999 SCT050 06/M07 Q1029

20140223_rjnt_07ja8360

20140223_rjnt_08ja8360

ANA888 RJNT-RJTT JA8360 B767-381

20140223_rjnt_09ja811a

20140223_rjnt_10ja811a

ANA887 RJTT-RJNT JA811A B787-881

RJNT 230800Z 01007KT 9999 FEW045 06/M05 Q1029

20140223_rjnt_11ja811a

20140223_rjnt_12ja811a

20140223_rjnt_13ja811a

ANA890 RJNT-RJTT JA811A B787-881

すっかり陽が伸びて、夕陽に美しい787でした。

ANA     /882 JA8674
ANA881/884 JA8288
ANA883/886 JA816A
ANA885/888 JA8360
ANA887/890 JA811A
ANA889/892 JA819A
ANA891       JA8568

ADO120/121 JA8196

AAR128/127 HL7735

|

« 定点 富山空港 2014/2/20 thu | トップページ | 小牧基地オープンベース1 名古屋飛行場 2014/2/22 sat »

富山空港」カテゴリの記事

コメント

コメントを書く



(ウェブ上には掲載しません)


コメントは記事投稿者が公開するまで表示されません。



トラックバック


この記事へのトラックバック一覧です: 定点 富山空港 2014/2/23 sun:

« 定点 富山空港 2014/2/20 thu | トップページ | 小牧基地オープンベース1 名古屋飛行場 2014/2/22 sat »